Time;durP1;ratioP1;P1;durP2;ratioP2;P2;SDS_P1;SDS_P2;PMS_P1;PMS_P2;Temp;Humidity;BMP_temperature;BMP_pressure;BME280_temperature;BME280_humidity;BME280_pressure;Samples;Min_cycle;Max_cycle;Signal;HPM_P1;HPM_P2
2023/12/06 00:00:08;;;;;;;18.58;3.45;;;27.00;99.90;;;;;;5030544;28;20185;-78
2023/12/06 00:02:41;;;;;;;15.88;3.65;;;27.10;99.90;;;;;;5031599;28;20263;-77
2023/12/06 00:05:12;;;;;;;15.40;3.35;;;27.10;99.90;;;;;;5031854;28;20225;-77
2023/12/06 00:07:43;;;;;;;20.85;3.50;;;27.00;99.90;;;;;;5031846;28;20197;-77
2023/12/06 00:10:14;;;;;;;12.88;2.88;;;26.90;99.90;;;;;;5031727;28;20201;-78
2023/12/06 00:12:45;;;;;;;16.23;3.50;;;26.90;99.90;;;;;;5031866;28;20544;-78
2023/12/06 00:15:16;;;;;;;18.80;3.58;;;27.10;99.90;;;;;;5031605;28;20205;-78
2023/12/06 00:17:49;;;;;;;12.85;3.15;;;27.10;99.90;;;;;;5031355;28;20497;-77
2023/12/06 00:20:20;;;;;;;13.38;2.95;;;27.20;99.90;;;;;;5031395;28;20266;-78
2023/12/06 00:22:51;;;;;;;14.38;3.00;;;27.30;99.90;;;;;;5031182;28;20197;-78
2023/12/06 00:25:22;;;;;;;15.80;3.53;;;27.30;99.90;;;;;;5031285;28;20673;-78
2023/12/06 00:27:55;;;;;;;13.57;2.85;;;27.40;99.90;;;;;;5032120;28;20220;-78
2023/12/06 00:30:26;;;;;;;16.80;3.92;;;27.40;99.90;;;;;;5040176;28;20205;-78
2023/12/06 00:32:58;;;;;;;13.00;2.92;;;27.40;99.90;;;;;;5035887;28;20204;-78
2023/12/06 00:35:29;;;;;;;19.95;3.80;;;27.50;99.90;;;;;;5031412;28;20207;-77
2023/12/06 00:38:00;;;;;;;15.75;3.65;;;27.60;99.90;;;;;;5031152;28;20268;-78
2023/12/06 00:40:31;;;;;;;14.98;3.47;;;27.60;99.90;;;;;;5031898;28;20196;-78
2023/12/06 00:43:02;;;;;;;15.90;3.60;;;27.70;99.90;;;;;;5031211;28;20203;-77
2023/12/06 00:45:33;;;;;;;16.73;3.17;;;27.50;99.90;;;;;;5030787;28;20268;-78
2023/12/06 00:48:06;;;;;;;13.25;2.95;;;27.70;99.90;;;;;;5030594;28;20659;-78
2023/12/06 00:50:37;;;;;;;17.63;2.92;;;27.80;99.90;;;;;;5030688;28;20201;-77
2023/12/06 00:53:07;;;;;;;11.25;2.63;;;27.90;99.90;;;;;;5030646;28;20243;-77
2023/12/06 00:55:38;;;;;;;10.95;2.75;;;28.00;99.90;;;;;;5030890;28;20197;-78
2023/12/06 00:58:10;;;;;;;12.23;2.47;;;28.00;99.90;;;;;;5030791;28;20221;-78
2023/12/06 01:00:41;;;;;;;12.05;3.13;;;28.10;99.90;;;;;;5036045;28;20198;-77
2023/12/06 01:03:14;;;;;;;9.43;2.70;;;28.10;99.90;;;;;;5049957;28;20209;-76
2023/12/06 01:05:45;;;;;;;13.07;2.83;;;28.00;99.90;;;;;;5049666;28;20224;-76
2023/12/06 01:08:16;;;;;;;9.52;2.75;;;28.00;99.90;;;;;;5040346;28;20288;-76
2023/12/06 01:10:47;;;;;;;10.32;2.45;;;28.00;99.90;;;;;;5032534;28;20205;-77
2023/12/06 01:13:18;;;;;;;11.60;2.70;;;27.90;99.90;;;;;;5035055;28;20252;-77
2023/12/06 01:15:49;;;;;;;14.32;2.75;;;28.00;99.90;;;;;;5034784;28;20284;-77
2023/12/06 01:18:21;;;;;;;12.93;2.95;;;28.10;99.90;;;;;;5034568;28;20197;-77
2023/12/06 01:20:52;;;;;;;12.93;3.10;;;28.20;99.90;;;;;;5034151;28;20231;-77
2023/12/06 01:23:23;;;;;;;11.38;2.75;;;28.30;99.90;;;;;;5034162;28;20204;-77
2023/12/06 01:25:53;;;;;;;12.63;2.90;;;28.40;99.90;;;;;;5034326;28;20252;-77
2023/12/06 01:28:24;;;;;;;12.70;2.42;;;28.40;99.90;;;;;;5033940;28;20563;-77
2023/12/06 01:30:55;;;;;;;9.95;2.60;;;28.30;99.90;;;;;;5033643;28;20237;-78
2023/12/06 01:33:27;;;;;;;9.82;2.63;;;28.40;99.90;;;;;;5054024;28;20204;-78
2023/12/06 01:35:58;;;;;;;10.35;2.80;;;28.40;99.90;;;;;;5047642;28;20197;-78
2023/12/06 01:38:29;;;;;;;7.80;2.35;;;28.40;99.90;;;;;;5033729;28;20518;-77
2023/12/06 01:41:00;;;;;;;10.20;2.65;;;28.40;99.90;;;;;;5034195;28;20250;-77
2023/12/06 01:43:31;;;;;;;10.90;2.72;;;28.40;99.90;;;;;;5034118;28;20198;-78
2023/12/06 01:46:01;;;;;;;12.85;2.80;;;28.50;99.90;;;;;;5033434;28;20721;-78
2023/12/06 01:48:35;;;;;;;11.68;3.13;;;28.40;99.90;;;;;;5033927;28;20284;-78
2023/12/06 01:51:06;;;;;;;13.40;3.13;;;28.40;99.90;;;;;;5033318;28;20201;-75
2023/12/06 01:53:37;;;;;;;14.77;3.25;;;28.40;99.90;;;;;;5035195;28;20251;-75
2023/12/06 01:56:10;;;;;;;13.63;3.10;;;28.40;99.90;;;;;;5038600;28;20582;-75
2023/12/06 01:58:42;;;;;;;13.00;2.90;;;28.30;99.90;;;;;;5033950;28;20197;-75
2023/12/06 02:01:13;;;;;;;10.40;2.65;;;28.30;99.90;;;;;;5019435;28;20747;-76
2023/12/06 02:03:46;;;;;;;18.70;3.20;;;28.30;99.90;;;;;;5014649;28;20202;-76
2023/12/06 02:06:17;;;;;;;12.45;2.75;;;28.30;99.90;;;;;;5014423;28;20312;-75
2023/12/06 02:08:48;;;;;;;12.00;3.20;;;28.30;99.90;;;;;;5014238;28;20202;-75
2023/12/06 02:11:19;;;;;;;13.43;3.15;;;28.20;99.90;;;;;;5017617;28;20201;-76
2023/12/06 02:13:50;;;;;;;12.15;3.35;;;28.20;99.90;;;;;;5033570;28;20197;-75
2023/12/06 02:16:22;;;;;;;9.02;2.45;;;27.90;99.90;;;;;;5052912;28;20189;-75
2023/12/06 02:18:55;;;;;;;11.38;2.88;;;27.90;99.90;;;;;;5050010;28;20256;-75
2023/12/06 02:21:26;;;;;;;13.13;2.83;;;27.90;99.90;;;;;;5040970;28;20276;-76
2023/12/06 02:23:59;;;;;;;12.55;2.90;;;28.10;99.90;;;;;;5032438;28;20676;-76
2023/12/06 02:26:34;;;;;;;12.10;2.72;;;28.20;99.90;;;;;;5032798;28;20212;-76
2023/12/06 02:29:05;;;;;;;16.80;2.92;;;28.30;99.90;;;;;;5032846;28;20205;-76
2023/12/06 02:31:36;;;;;;;14.15;2.78;;;28.20;99.90;;;;;;5032932;28;20643;-76
2023/12/06 02:34:14;;;;;;;10.07;3.00;;;28.30;99.90;;;;;;5032532;28;20205;-77
2023/12/06 02:36:49;;;;;;;10.27;2.50;;;28.40;99.90;;;;;;5032795;28;20189;-77
2023/12/06 02:39:20;;;;;;;11.50;2.80;;;28.50;99.90;;;;;;5032590;28;20197;-77
2023/12/06 02:41:52;;;;;;;15.00;2.78;;;28.60;99.90;;;;;;5032299;28;20221;-77
2023/12/06 02:44:23;;;;;;;13.18;3.05;;;28.60;99.90;;;;;;5032249;28;20224;-76
2023/12/06 02:46:55;;;;;;;14.65;2.88;;;28.80;99.90;;;;;;5032338;28;20204;-76
2023/12/06 02:49:26;;;;;;;12.05;2.75;;;28.80;99.90;;;;;;5032628;28;20220;-75
2023/12/06 02:51:56;;;;;;;17.23;3.10;;;28.70;99.90;;;;;;5032549;28;20185;-76
2023/12/06 02:54:27;;;;;;;11.07;2.70;;;28.70;99.90;;;;;;5020814;28;20202;-76
2023/12/06 02:57:00;;;;;;;14.82;2.65;;;28.80;99.90;;;;;;5014090;28;20225;-76
2023/12/06 02:59:31;;;;;;;14.68;2.95;;;28.80;99.90;;;;;;5031657;28;20239;-76
2023/12/06 03:02:01;;;;;;;13.90;3.10;;;28.90;99.90;;;;;;5032131;28;20209;-76
2023/12/06 03:04:32;;;;;;;14.18;2.72;;;29.00;99.90;;;;;;5031806;28;20696;-76
2023/12/06 03:07:03;;;;;;;12.40;2.83;;;29.10;99.90;;;;;;5032061;28;20272;-76
2023/12/06 03:09:34;;;;;;;11.52;2.80;;;29.00;99.90;;;;;;5031925;28;20208;-76
2023/12/06 03:12:07;;;;;;;13.65;2.67;;;29.10;99.90;;;;;;5032019;28;20189;-77
2023/12/06 03:14:37;;;;;;;11.70;2.60;;;29.20;99.90;;;;;;5031959;28;20295;-76
2023/12/06 03:17:08;;;;;;;12.48;2.90;;;29.10;99.90;;;;;;5031880;28;20284;-77
2023/12/06 03:19:40;;;;;;;10.80;2.55;;;29.00;99.90;;;;;;5032075;28;20213;-76
2023/12/06 03:22:11;;;;;;;12.73;2.70;;;29.10;99.90;;;;;;5031924;28;20193;-75
2023/12/06 03:24:41;;;;;;;13.10;2.30;;;29.00;99.90;;;;;;5032765;28;20224;-76
2023/12/06 03:27:14;;;;;;;8.70;2.47;;;29.10;99.90;;;;;;5044522;28;20287;-76
2023/12/06 03:29:45;;;;;;;10.23;2.63;;;29.10;99.90;;;;;;5056590;28;20311;-76
2023/12/06 03:32:16;;;;;;;10.70;2.55;;;29.00;99.90;;;;;;5064421;28;20509;-76
2023/12/06 03:34:46;;;;;;;13.60;3.10;;;29.10;99.90;;;;;;5048035;28;20187;-76
2023/12/06 03:37:17;;;;;;;14.32;2.80;;;29.10;99.90;;;;;;5035738;28;20198;-76
2023/12/06 03:39:48;;;;;;;11.00;2.75;;;29.40;99.90;;;;;;5033005;28;20205;-77
2023/12/06 03:42:21;;;;;;;10.57;2.50;;;29.30;99.90;;;;;;5032435;28;20197;-76
2023/12/06 03:44:51;;;;;;;12.90;2.80;;;29.30;99.90;;;;;;5031381;28;20237;-76
2023/12/06 03:47:22;;;;;;;13.55;2.88;;;29.20;99.90;;;;;;5031608;28;20193;-76
2023/12/06 03:49:53;;;;;;;13.20;2.80;;;29.20;99.90;;;;;;5031592;28;20224;-76
2023/12/06 03:52:24;;;;;;;10.63;2.70;;;29.20;99.90;;;;;;5031588;28;20197;-76
2023/12/06 03:54:54;;;;;;;13.13;2.90;;;29.00;99.90;;;;;;5031637;28;20208;-76
2023/12/06 03:57:27;;;;;;;15.00;3.00;;;29.30;99.90;;;;;;5031337;28;20664;-76
2023/12/06 03:59:58;;;;;;;13.25;3.20;;;29.20;99.90;;;;;;5031428;28;20224;-76
2023/12/06 04:02:29;;;;;;;12.07;2.95;;;29.00;99.90;;;;;;5031550;28;20285;-77
2023/12/06 04:05:00;;;;;;;13.32;3.15;;;28.90;99.90;;;;;;5031753;28;20217;-77
2023/12/06 04:07:31;;;;;;;14.98;2.67;;;28.90;99.90;;;;;;5031616;28;20193;-76
2023/12/06 04:10:02;;;;;;;14.73;3.20;;;28.60;99.90;;;;;;5031464;28;20203;-77
2023/12/06 04:12:35;;;;;;;13.18;2.63;;;28.40;99.90;;;;;;5031797;28;20223;-76
2023/12/06 04:15:06;;;;;;;16.58;3.20;;;28.20;99.90;;;;;;5031507;28;20208;-76
2023/12/06 04:17:37;;;;;;;12.10;3.30;;;28.20;99.90;;;;;;5031867;28;20206;-76
2023/12/06 04:20:08;;;;;;;10.30;2.63;;;28.20;99.90;;;;;;5031384;28;20212;-76
2023/12/06 04:22:39;;;;;;;14.50;3.15;;;28.40;99.90;;;;;;5031351;28;20277;-76
2023/12/06 04:25:10;;;;;;;13.85;3.08;;;28.40;99.90;;;;;;5043294;28;20236;-75
2023/12/06 04:27:43;;;;;;;11.60;2.50;;;28.50;99.90;;;;;;5043515;28;20651;-76
2023/12/06 04:30:16;;;;;;;12.27;2.83;;;28.50;99.90;;;;;;5031265;28;20631;-76
2023/12/06 04:32:47;;;;;;;10.65;2.65;;;28.70;99.90;;;;;;5030960;28;20622;-76
2023/12/06 04:35:18;;;;;;;13.95;2.67;;;28.80;99.90;;;;;;5031084;28;20286;-76
2023/12/06 04:37:48;;;;;;;7.75;2.28;;;28.90;99.90;;;;;;5031292;28;20686;-77
2023/12/06 04:40:19;;;;;;;13.52;3.10;;;28.90;99.90;;;;;;5031179;28;20223;-77
2023/12/06 04:42:52;;;;;;;10.68;2.85;;;28.80;99.90;;;;;;5044652;28;20198;-76
2023/12/06 04:45:22;;;;;;;14.00;2.90;;;28.90;99.90;;;;;;5052052;28;20288;-75
2023/12/06 04:47:53;;;;;;;11.35;2.63;;;29.20;99.90;;;;;;5046156;28;20213;-76
2023/12/06 04:50:24;;;;;;;13.15;2.92;;;29.20;99.90;;;;;;5031100;28;20201;-76
2023/12/06 04:52:55;;;;;;;10.68;2.65;;;29.40;99.90;;;;;;5031120;28;20668;-77
2023/12/06 04:55:25;;;;;;;14.15;2.58;;;29.40;99.90;;;;;;5031365;28;20212;-77
2023/12/06 04:57:58;;;;;;;12.73;2.72;;;29.50;99.90;;;;;;5032717;28;20239;-76
2023/12/06 05:00:29;;;;;;;10.57;2.72;;;29.70;99.90;;;;;;5032483;28;20567;-76
2023/12/06 05:03:00;;;;;;;10.00;2.28;;;29.70;99.90;;;;;;5031030;28;20296;-78
2023/12/06 05:05:31;;;;;;;11.18;2.42;;;29.60;99.90;;;;;;5030441;28;20247;-76
2023/12/06 05:08:01;;;;;;;11.30;2.58;;;29.80;99.90;;;;;;5030359;28;20209;-76
2023/12/06 05:10:32;;;;;;;8.30;2.30;;;29.70;99.90;;;;;;5030457;28;20233;-76
2023/12/06 05:13:05;;;;;;;10.85;2.85;;;29.70;99.90;;;;;;5030888;28;20197;-76
2023/12/06 05:15:35;;;;;;;9.32;2.33;;;29.90;99.90;;;;;;5030665;28;20197;-76
2023/12/06 05:18:07;;;;;;;9.73;2.47;;;29.90;99.90;;;;;;5030764;28;20207;-77
2023/12/06 05:20:38;;;;;;;13.77;2.70;;;30.00;99.90;;;;;;5030297;28;20189;-76
2023/12/06 05:23:09;;;;;;;12.05;2.75;;;29.60;99.90;;;;;;5043441;28;20207;-76
2023/12/06 05:25:40;;;;;;;14.40;2.60;;;29.80;99.90;;;;;;5050410;28;20238;-77
2023/12/06 05:28:12;;;;;;;10.93;2.63;;;30.00;99.90;;;;;;5048943;28;20201;-77
2023/12/06 05:30:43;;;;;;;9.75;2.50;;;30.20;99.90;;;;;;5030189;28;20248;-77
2023/12/06 05:33:14;;;;;;;10.25;2.50;;;30.30;99.90;;;;;;5030428;28;20664;-77
2023/12/06 05:35:45;;;;;;;11.98;2.55;;;30.40;99.90;;;;;;5030330;28;20668;-76
2023/12/06 05:38:17;;;;;;;12.55;3.03;;;30.40;99.90;;;;;;5030788;28;20201;-77
2023/12/06 05:40:47;;;;;;;10.85;2.28;;;30.60;99.90;;;;;;5030816;28;20206;-77
2023/12/06 05:43:20;;;;;;;10.32;2.55;;;30.90;99.90;;;;;;5030850;28;20201;-76
2023/12/06 05:45:51;;;;;;;14.07;2.75;;;31.00;99.90;;;;;;5029821;28;20232;-77
2023/12/06 05:48:22;;;;;;;9.85;2.58;;;31.20;99.80;;;;;;5030626;28;20747;-78
2023/12/06 05:50:53;;;;;;;11.00;2.20;;;31.30;98.90;;;;;;5029860;28;20667;-77
2023/12/06 05:53:23;;;;;;;11.23;2.17;;;31.70;97.40;;;;;;5029937;28;20239;-78
2023/12/06 05:55:54;;;;;;;9.20;2.15;;;31.70;97.80;;;;;;5040225;28;20264;-77
2023/12/06 05:58:27;;;;;;;12.05;2.42;;;32.10;96.20;;;;;;5047864;28;20213;-77
2023/12/06 06:00:58;;;;;;;10.18;2.50;;;32.10;95.20;;;;;;5046797;28;20197;-78
2023/12/06 06:03:31;;;;;;;8.68;2.10;;;32.00;95.60;;;;;;5040485;28;20296;-77
2023/12/06 06:06:05;;;;;;;14.88;3.13;;;32.20;93.30;;;;;;5033641;28;20224;-77
2023/12/06 06:08:36;;;;;;;11.88;2.45;;;32.40;93.60;;;;;;5033759;28;20212;-78
2023/12/06 06:11:08;;;;;;;14.27;3.05;;;32.10;94.20;;;;;;5033589;28;20216;-78
2023/12/06 06:13:41;;;;;;;11.13;2.70;;;31.80;95.30;;;;;;5033920;28;20208;-77
2023/12/06 06:16:17;;;;;;;9.63;2.55;;;31.90;95.40;;;;;;5033466;28;20281;-77
2023/12/06 06:18:47;;;;;;;8.80;2.65;;;31.80;95.30;;;;;;5034156;28;20197;-77
2023/12/06 06:21:19;;;;;;;12.85;2.65;;;32.10;94.20;;;;;;5049143;28;20211;-77
2023/12/06 06:23:50;;;;;;;17.98;3.70;;;32.00;94.40;;;;;;5053735;28;20196;-76
2023/12/06 06:26:21;;;;;;;9.98;2.53;;;31.80;94.90;;;;;;5049312;28;20225;-76
2023/12/06 06:28:53;;;;;;;11.50;3.28;;;32.00;94.40;;;;;;5034259;28;20217;-77
2023/12/06 06:31:24;;;;;;;9.35;2.42;;;31.90;94.90;;;;;;5037874;28;20259;-77
2023/12/06 06:33:56;;;;;;;12.05;2.63;;;31.90;94.60;;;;;;5036852;28;20197;-77
2023/12/06 06:36:27;;;;;;;13.40;2.78;;;31.90;94.70;;;;;;5032953;28;20590;-76
2023/12/06 06:38:57;;;;;;;9.70;2.80;;;32.40;93.70;;;;;;5033066;28;20209;-78
2023/12/06 06:41:28;;;;;;;10.65;2.90;;;32.70;93.80;;;;;;5033155;28;20204;-77
2023/12/06 06:44:01;;;;;;;12.45;2.70;;;33.00;92.20;;;;;;5032497;28;20210;-77
2023/12/06 06:46:35;;;;;;;12.82;2.97;;;32.80;91.70;;;;;;5032815;28;20239;-77
2023/12/06 06:49:05;;;;;;;12.43;2.60;;;32.50;92.60;;;;;;5033049;28;20251;-76
2023/12/06 06:51:37;;;;;;;10.23;2.60;;;32.40;92.60;;;;;;5032577;28;20205;-76
2023/12/06 06:54:09;;;;;;;9.93;2.15;;;32.30;92.30;;;;;;5032666;28;20203;-77
2023/12/06 06:56:40;;;;;;;11.60;2.92;;;32.20;91.70;;;;;;5032532;28;20209;-76
2023/12/06 06:59:13;;;;;;;10.25;3.03;;;31.70;92.90;;;;;;5032791;28;20292;-77
2023/12/06 07:01:44;;;;;;;13.25;2.90;;;31.60;93.90;;;;;;5032626;28;20236;-76
2023/12/06 07:04:15;;;;;;;12.65;3.13;;;31.40;93.70;;;;;;5032809;28;20197;-78
2023/12/06 07:06:46;;;;;;;10.57;2.55;;;31.30;93.40;;;;;;5032510;28;20287;-78
2023/12/06 07:09:16;;;;;;;11.05;2.95;;;31.10;94.20;;;;;;5041022;28;20203;-77
2023/12/06 07:11:47;;;;;;;12.52;2.60;;;31.20;94.20;;;;;;5045775;28;20201;-78
2023/12/06 07:14:20;;;;;;;9.73;2.67;;;30.70;95.40;;;;;;5044691;28;20686;-79
2023/12/06 07:16:51;;;;;;;8.13;2.38;;;30.20;96.20;;;;;;5038056;28;20229;-78
2023/12/06 07:19:22;;;;;;;9.88;2.80;;;29.80;97.90;;;;;;5032156;28;20209;-78
2023/12/06 07:21:53;;;;;;;7.75;2.95;;;29.50;98.20;;;;;;5032256;28;20255;-77
2023/12/06 07:24:24;;;;;;;11.10;2.80;;;29.20;99.20;;;;;;5032250;28;20197;-78
2023/12/06 07:26:54;;;;;;;12.85;2.92;;;28.80;99.90;;;;;;5031911;28;20224;-77
2023/12/06 07:29:30;;;;;;;11.00;2.67;;;28.80;99.90;;;;;;5031992;28;20198;-78
2023/12/06 07:32:01;;;;;;;9.57;2.60;;;28.80;99.90;;;;;;5032485;28;20729;-78
2023/12/06 07:34:32;;;;;;;12.00;2.55;;;28.80;99.90;;;;;;5032139;28;20284;-78
2023/12/06 07:37:08;;;;;;;9.68;2.35;;;28.90;99.90;;;;;;5032743;28;20198;-78
2023/12/06 07:39:39;;;;;;;11.43;2.63;;;28.90;99.90;;;;;;5032646;28;20200;-77
2023/12/06 07:42:10;;;;;;;7.57;1.85;;;29.10;99.90;;;;;;5031880;28;20235;-78
2023/12/06 07:44:42;;;;;;;13.02;2.90;;;29.10;99.90;;;;;;5031491;28;20572;-78
2023/12/06 07:47:15;;;;;;;8.52;2.75;;;28.90;99.90;;;;;;5031604;28;20711;-78
2023/12/06 07:49:46;;;;;;;10.88;2.67;;;28.80;99.90;;;;;;5032171;28;20201;-79
2023/12/06 07:52:17;;;;;;;11.50;2.75;;;28.50;99.90;;;;;;5032313;28;20548;-78
2023/12/06 07:54:48;;;;;;;14.93;3.08;;;28.40;99.90;;;;;;5037529;28;20201;-78
2023/12/06 07:57:19;;;;;;;12.10;2.90;;;28.30;99.90;;;;;;5035384;28;20197;-78
2023/12/06 07:59:51;;;;;;;10.85;2.50;;;28.20;99.90;;;;;;5032025;28;20200;-78
2023/12/06 08:02:22;;;;;;;13.27;2.60;;;28.20;99.90;;;;;;5031532;28;20200;-78
2023/12/06 08:04:53;;;;;;;9.75;2.50;;;28.00;99.90;;;;;;5031177;28;20224;-78
2023/12/06 08:07:24;;;;;;;10.93;2.63;;;27.80;99.90;;;;;;5031086;28;20228;-77
2023/12/06 08:09:56;;;;;;;9.85;2.42;;;27.60;99.90;;;;;;5030993;28;20376;-77
2023/12/06 08:12:26;;;;;;;8.65;2.55;;;27.50;99.90;;;;;;5031200;28;20201;-77
2023/12/06 08:14:59;;;;;;;8.55;2.50;;;27.30;99.90;;;;;;5032044;28;20220;-77
2023/12/06 08:17:30;;;;;;;10.82;2.63;;;27.10;99.90;;;;;;5050953;28;20293;-77
2023/12/06 08:20:01;;;;;;;11.10;2.50;;;27.00;99.90;;;;;;5050801;28;20228;-77
2023/12/06 08:22:31;;;;;;;9.90;2.80;;;26.80;99.90;;;;;;5048028;28;20211;-77
2023/12/06 08:25:02;;;;;;;14.55;3.00;;;26.70;99.90;;;;;;5043128;28;20207;-76
2023/12/06 08:27:34;;;;;;;11.18;2.72;;;26.70;99.90;;;;;;5043256;28;20361;-76
2023/12/06 08:30:08;;;;;;;11.90;3.22;;;26.60;99.90;;;;;;5036206;28;20293;-77
2023/12/06 08:32:39;;;;;;;7.53;2.60;;;26.40;99.90;;;;;;5030952;28;20201;-77
2023/12/06 08:35:10;;;;;;;8.30;2.17;;;26.30;99.90;;;;;;5030646;28;20205;-77
2023/12/06 08:37:41;;;;;;;11.32;2.65;;;26.20;99.90;;;;;;5011224;28;20208;-76
2023/12/06 08:40:13;;;;;;;8.65;2.60;;;26.10;99.90;;;;;;5018693;28;20204;-77
2023/12/06 08:42:44;;;;;;;7.68;2.40;;;26.00;99.90;;;;;;5030564;28;20201;-77
2023/12/06 08:45:17;;;;;;;8.35;2.40;;;26.00;99.90;;;;;;5030511;28;20237;-76
2023/12/06 08:47:47;;;;;;;11.95;2.80;;;25.90;99.90;;;;;;5031118;28;20229;-77
2023/12/06 08:50:18;;;;;;;6.38;2.10;;;25.90;99.90;;;;;;5031141;28;20714;-76
2023/12/06 08:52:49;;;;;;;6.07;2.13;;;25.80;99.90;;;;;;5031351;28;20201;-75
2023/12/06 08:55:20;;;;;;;9.27;2.40;;;25.70;99.90;;;;;;5030990;28;20301;-77
2023/12/06 08:57:51;;;;;;;9.10;2.10;;;25.60;99.90;;;;;;5030818;28;20198;-76
2023/12/06 09:00:24;;;;;;;12.18;2.63;;;25.50;99.90;;;;;;5030509;28;20205;-76
2023/12/06 09:02:55;;;;;;;8.10;2.00;;;25.40;99.90;;;;;;5030844;28;20735;-76
2023/12/06 09:05:26;;;;;;;7.88;2.40;;;25.30;99.90;;;;;;5030415;28;20213;-77
2023/12/06 09:07:57;;;;;;;11.38;2.85;;;25.30;99.90;;;;;;5030149;28;20254;-76
2023/12/06 09:10:28;;;;;;;10.38;2.72;;;25.30;99.90;;;;;;5030665;28;20197;-76
2023/12/06 09:12:59;;;;;;;12.43;3.13;;;25.30;99.90;;;;;;5030404;28;20197;-77
2023/12/06 09:15:31;;;;;;;8.57;2.80;;;25.30;99.90;;;;;;5052861;28;20565;-76
2023/12/06 09:18:02;;;;;;;8.73;2.50;;;25.30;99.90;;;;;;5044763;28;20205;-76
2023/12/06 09:20:33;;;;;;;8.75;2.42;;;25.20;99.90;;;;;;5030310;28;20212;-76
2023/12/06 09:23:05;;;;;;;11.15;2.58;;;25.20;99.90;;;;;;5030380;28;20240;-76
2023/12/06 09:25:36;;;;;;;11.05;2.97;;;25.20;99.90;;;;;;5030101;28;20197;-76
2023/12/06 09:28:06;;;;;;;9.48;2.70;;;25.10;99.90;;;;;;5030390;28;20240;-77
2023/12/06 09:30:39;;;;;;;11.43;2.50;;;25.10;99.90;;;;;;5030342;28;20201;-76
2023/12/06 09:33:10;;;;;;;9.05;2.40;;;25.00;99.90;;;;;;5029968;28;20668;-76
2023/12/06 09:35:41;;;;;;;13.32;2.88;;;25.00;99.90;;;;;;5035051;28;20197;-76
2023/12/06 09:38:12;;;;;;;11.48;2.60;;;25.00;99.90;;;;;;5040756;28;20209;-76
2023/12/06 09:40:43;;;;;;;9.60;2.58;;;24.90;99.90;;;;;;5043763;28;20248;-76
2023/12/06 09:43:15;;;;;;;11.27;2.65;;;24.90;99.90;;;;;;5044188;28;20201;-76
2023/12/06 09:45:49;;;;;;;9.63;2.60;;;24.90;99.90;;;;;;5033633;28;20229;-76
2023/12/06 09:48:20;;;;;;;8.65;3.30;;;24.80;99.90;;;;;;5033939;28;20221;-76
2023/12/06 09:50:50;;;;;;;8.57;2.90;;;24.80;99.90;;;;;;5034152;28;20205;-76
2023/12/06 09:53:23;;;;;;;14.75;3.00;;;24.80;99.90;;;;;;5034526;28;20203;-77
2023/12/06 09:55:54;;;;;;;11.07;2.53;;;24.80;99.90;;;;;;5033871;28;20204;-76
2023/12/06 09:58:25;;;;;;;9.10;2.20;;;24.90;99.90;;;;;;5033482;28;20197;-76
2023/12/06 10:00:57;;;;;;;9.93;3.15;;;24.90;99.90;;;;;;5033633;28;20193;-77
2023/12/06 10:03:28;;;;;;;8.55;2.10;;;24.90;99.90;;;;;;5033725;28;20591;-76
2023/12/06 10:06:03;;;;;;;13.30;2.33;;;24.90;99.90;;;;;;5033934;28;20193;-76
2023/12/06 10:08:35;;;;;;;8.40;2.00;;;24.90;99.90;;;;;;5033045;28;20638;-77
2023/12/06 10:11:07;;;;;;;7.60;2.10;;;24.80;99.90;;;;;;5035132;28;20251;-76
2023/12/06 10:13:38;;;;;;;8.85;2.40;;;24.80;99.90;;;;;;5053357;28;20200;-77
2023/12/06 10:16:19;;;;;;;8.43;2.10;;;24.80;99.90;;;;;;5053246;28;20201;-77
2023/12/06 10:18:52;;;;;;;7.68;2.08;;;24.80;99.90;;;;;;5044074;28;20201;-77
2023/12/06 10:21:23;;;;;;;12.25;2.70;;;24.70;99.90;;;;;;5033239;28;20221;-77
2023/12/06 10:23:59;;;;;;;9.48;2.30;;;24.70;99.90;;;;;;5033004;28;20201;-77
2023/12/06 10:26:31;;;;;;;9.35;2.17;;;24.70;99.90;;;;;;5013198;28;20244;-77
2023/12/06 10:29:01;;;;;;;7.03;2.10;;;24.70;99.90;;;;;;5013183;28;20206;-77
2023/12/06 10:31:42;;;;;;;11.73;2.47;;;24.80;99.90;;;;;;5020874;28;20260;-77
2023/12/06 10:34:13;;;;;;;6.72;1.83;;;24.70;99.90;;;;;;5032950;28;20490;-77
2023/12/06 10:36:44;;;;;;;9.40;2.13;;;24.70;99.90;;;;;;5038602;28;20197;-77
2023/12/06 10:39:16;;;;;;;5.57;2.00;;;24.70;99.90;;;;;;5034661;28;20543;-77
2023/12/06 10:41:51;;;;;;;11.15;2.45;;;24.70;99.90;;;;;;5032285;28;20270;-78
2023/12/06 10:44:22;;;;;;;7.13;2.08;;;24.70;99.90;;;;;;5032414;28;20228;-78
2023/12/06 10:46:57;;;;;;;9.23;2.55;;;24.60;99.90;;;;;;5033038;28;20734;-78
2023/12/06 10:49:29;;;;;;;8.43;2.08;;;24.60;99.90;;;;;;5033148;28;20284;-78
2023/12/06 10:52:01;;;;;;;9.13;2.22;;;24.60;99.90;;;;;;5044909;28;20203;-78
2023/12/06 10:54:32;;;;;;;10.38;2.25;;;24.50;99.90;;;;;;5044149;28;20237;-78
2023/12/06 10:57:04;;;;;;;9.10;2.40;;;24.50;99.90;;;;;;5036505;28;20198;-78
2023/12/06 10:59:34;;;;;;;8.00;2.53;;;24.50;99.90;;;;;;5032394;28;20671;-78
2023/12/06 11:02:08;;;;;;;8.23;2.17;;;24.50;99.90;;;;;;5032246;28;20280;-78
2023/12/06 11:04:43;;;;;;;8.85;2.30;;;24.50;99.90;;;;;;5032244;28;20608;-78
2023/12/06 11:07:30;;;;;;;13.32;3.00;;;24.40;99.90;;;;;;5031982;28;20521;-78
2023/12/06 11:10:09;;;;;;;10.77;2.28;;;24.40;99.90;;;;;;5052523;28;20227;-78
2023/12/06 11:12:52;;;;;;;11.52;2.75;;;24.40;99.90;;;;;;5052092;28;20207;-78
2023/12/06 11:15:33;;;;;;;14.32;2.95;;;24.30;99.90;;;;;;5047863;28;20223;-77
2023/12/06 11:18:18;;;;;;;11.38;2.38;;;24.40;99.90;;;;;;5032211;28;20197;-78
2023/12/06 11:20:49;;;;;;;10.93;2.58;;;24.30;99.90;;;;;;5031990;28;20206;-77
2023/12/06 11:23:22;;;;;;;9.25;2.50;;;24.40;99.90;;;;;;5032286;28;20217;-78
2023/12/06 11:25:53;;;;;;;11.10;2.30;;;24.40;99.90;;;;;;5032206;28;20216;-78
2023/12/06 11:28:24;;;;;;;12.05;2.63;;;24.40;99.90;;;;;;5032136;28;20231;-78
2023/12/06 11:30:57;;;;;;;14.57;2.80;;;24.30;99.90;;;;;;5031792;28;20198;-78
2023/12/06 11:33:30;;;;;;;11.82;2.72;;;24.20;99.90;;;;;;5031287;28;20674;-78
2023/12/06 11:36:01;;;;;;;11.30;2.40;;;24.20;99.90;;;;;;5031364;28;20205;-78
2023/12/06 11:38:39;;;;;;;13.20;2.70;;;24.20;99.90;;;;;;5031608;28;20660;-78
2023/12/06 11:41:15;;;;;;;12.15;2.45;;;24.20;99.90;;;;;;5031650;28;20197;-78
2023/12/06 11:43:51;;;;;;;9.57;2.42;;;24.30;99.90;;;;;;5032054;28;20563;-78
2023/12/06 11:46:25;;;;;;;12.10;2.47;;;24.20;99.90;;;;;;5031933;28;20707;-77
2023/12/06 11:48:58;;;;;;;16.15;2.67;;;24.20;99.90;;;;;;5031658;28;20282;-78
2023/12/06 11:51:32;;;;;;;11.68;2.35;;;24.20;99.90;;;;;;5031864;28;20190;-78
2023/12/06 11:54:04;;;;;;;9.80;2.33;;;24.20;99.90;;;;;;5032367;28;20291;-78
2023/12/06 11:56:34;;;;;;;12.68;2.42;;;24.20;99.90;;;;;;5033598;28;20211;-78
2023/12/06 11:59:07;;;;;;;13.18;2.40;;;24.20;99.90;;;;;;5032772;28;20193;-78
2023/12/06 12:01:38;;;;;;;10.25;2.45;;;24.10;99.90;;;;;;5032459;28;20645;-78
2023/12/06 12:04:12;;;;;;;10.40;2.70;;;24.20;99.90;;;;;;5041061;28;20200;-76
2023/12/06 12:06:42;;;;;;;8.65;2.13;;;24.20;99.90;;;;;;5058628;28;20201;-77
2023/12/06 12:09:14;;;;;;;12.35;2.85;;;24.10;99.90;;;;;;5050639;28;20475;-80
2023/12/06 12:11:47;;;;;;;10.07;2.40;;;24.10;99.90;;;;;;5039492;28;20209;-78
2023/12/06 12:14:18;;;;;;;11.73;2.42;;;24.10;99.90;;;;;;5031327;28;20628;-78
2023/12/06 12:16:49;;;;;;;11.40;2.53;;;24.10;99.90;;;;;;5031567;28;20623;-78
2023/12/06 12:19:22;;;;;;;11.88;2.65;;;24.10;99.90;;;;;;5031690;28;20229;-78
2023/12/06 12:21:53;;;;;;;8.90;2.58;;;24.10;99.90;;;;;;5031644;28;20205;-79
2023/12/06 12:24:28;;;;;;;13.35;2.30;;;24.00;99.90;;;;;;5031243;28;20201;-79
2023/12/06 12:26:58;;;;;;;6.55;2.47;;;24.00;99.90;;;;;;5031704;28;20201;-78
2023/12/06 12:29:29;;;;;;;9.25;2.45;;;24.00;99.90;;;;;;5031973;28;20232;-78
2023/12/06 12:32:00;;;;;;;12.43;2.40;;;24.00;99.90;;;;;;5031528;28;20197;-79
2023/12/06 12:34:33;;;;;;;9.25;2.30;;;24.00;99.90;;;;;;5031398;28;20210;-80
2023/12/06 12:37:06;;;;;;;9.63;2.45;;;24.00;99.90;;;;;;5031313;28;20570;-79
2023/12/06 12:39:37;;;;;;;11.70;2.40;;;24.00;99.90;;;;;;5031218;28;20208;-76
2023/12/06 12:42:09;;;;;;;12.02;2.92;;;24.00;99.90;;;;;;5031001;28;20201;-76
2023/12/06 12:44:40;;;;;;;9.20;2.40;;;23.90;99.90;;;;;;5030865;28;20248;-76
2023/12/06 12:47:11;;;;;;;6.60;2.17;;;24.00;99.90;;;;;;5031241;28;20552;-77
2023/12/06 12:49:45;;;;;;;11.82;2.65;;;23.90;99.90;;;;;;5031134;28;20668;-76
2023/12/06 12:52:16;;;;;;;8.57;2.40;;;24.00;99.90;;;;;;5031025;28;20746;-77
2023/12/06 12:54:48;;;;;;;8.63;2.20;;;24.00;99.90;;;;;;5030678;28;20251;-79
2023/12/06 12:57:19;;;;;;;9.98;2.15;;;23.90;99.90;;;;;;5030699;28;20211;-76
2023/12/06 12:59:49;;;;;;;7.90;2.20;;;23.90;99.90;;;;;;5030562;28;20207;-77
2023/12/06 13:02:20;;;;;;;9.50;2.15;;;23.90;99.90;;;;;;5030415;28;20220;-76